sensor_id;sensor_type;location;lat;lon;timestamp;P1;durP1;ratioP1;P2;durP2;ratioP2
66874;SDS011;53784;52.630;4.896;2023-04-24T00:01:20;5.90;;;2.78;;
66874;SDS011;53784;52.630;4.896;2023-04-24T00:03:46;4.90;;;2.00;;
66874;SDS011;53784;52.630;4.896;2023-04-24T00:06:11;7.32;;;2.67;;
66874;SDS011;53784;52.630;4.896;2023-04-24T00:08:36;6.78;;;2.20;;
66874;SDS011;53784;52.630;4.896;2023-04-24T00:11:02;2.97;;;1.42;;
66874;SDS011;53784;52.630;4.896;2023-04-24T00:13:27;9.10;;;3.25;;
66874;SDS011;53784;52.630;4.896;2023-04-24T00:15:53;3.42;;;1.40;;
66874;SDS011;53784;52.630;4.896;2023-04-24T00:18:19;3.70;;;1.30;;
66874;SDS011;53784;52.630;4.896;2023-04-24T00:20:44;4.53;;;1.50;;
66874;SDS011;53784;52.630;4.896;2023-04-24T00:23:10;3.55;;;1.60;;
66874;SDS011;53784;52.630;4.896;2023-04-24T00:25:35;4.13;;;1.80;;
66874;SDS011;53784;52.630;4.896;2023-04-24T00:28:00;3.47;;;1.50;;
66874;SDS011;53784;52.630;4.896;2023-04-24T00:30:26;3.00;;;1.50;;
66874;SDS011;53784;52.630;4.896;2023-04-24T00:32:51;3.45;;;1.63;;
66874;SDS011;53784;52.630;4.896;2023-04-24T00:35:16;4.43;;;1.40;;
66874;SDS011;53784;52.630;4.896;2023-04-24T00:37:41;3.75;;;1.33;;
66874;SDS011;53784;52.630;4.896;2023-04-24T00:40:07;3.45;;;1.50;;
66874;SDS011;53784;52.630;4.896;2023-04-24T00:42:32;3.08;;;1.50;;
66874;SDS011;53784;52.630;4.896;2023-04-24T00:44:58;3.78;;;1.48;;
66874;SDS011;53784;52.630;4.896;2023-04-24T00:47:24;3.88;;;1.90;;
66874;SDS011;53784;52.630;4.896;2023-04-24T00:49:50;3.70;;;1.67;;
66874;SDS011;53784;52.630;4.896;2023-04-24T00:52:15;3.65;;;1.52;;
66874;SDS011;53784;52.630;4.896;2023-04-24T00:54:42;4.32;;;1.40;;
66874;SDS011;53784;52.630;4.896;2023-04-24T00:57:10;6.75;;;1.50;;
66874;SDS011;53784;52.630;4.896;2023-04-24T00:59:36;3.78;;;1.75;;
66874;SDS011;53784;52.630;4.896;2023-04-24T01:02:02;3.28;;;1.50;;
66874;SDS011;53784;52.630;4.896;2023-04-24T01:04:27;4.00;;;1.50;;
66874;SDS011;53784;52.630;4.896;2023-04-24T01:06:52;3.47;;;1.40;;
66874;SDS011;53784;52.630;4.896;2023-04-24T01:09:17;2.85;;;1.20;;
66874;SDS011;53784;52.630;4.896;2023-04-24T01:11:43;2.83;;;1.38;;
66874;SDS011;53784;52.630;4.896;2023-04-24T01:14:08;4.97;;;1.65;;
66874;SDS011;53784;52.630;4.896;2023-04-24T01:16:34;4.13;;;1.50;;
66874;SDS011;53784;52.630;4.896;2023-04-24T01:19:00;4.68;;;1.83;;
66874;SDS011;53784;52.630;4.896;2023-04-24T01:21:26;3.20;;;1.65;;
66874;SDS011;53784;52.630;4.896;2023-04-24T01:23:54;3.40;;;1.77;;
66874;SDS011;53784;52.630;4.896;2023-04-24T01:26:20;3.30;;;1.70;;
66874;SDS011;53784;52.630;4.896;2023-04-24T01:28:46;4.45;;;1.80;;
66874;SDS011;53784;52.630;4.896;2023-04-24T01:31:11;4.15;;;1.60;;
66874;SDS011;53784;52.630;4.896;2023-04-24T01:33:37;3.33;;;1.65;;
66874;SDS011;53784;52.630;4.896;2023-04-24T01:36:02;3.42;;;1.70;;
66874;SDS011;53784;52.630;4.896;2023-04-24T01:38:28;3.60;;;1.73;;
66874;SDS011;53784;52.630;4.896;2023-04-24T01:40:53;4.63;;;1.73;;
66874;SDS011;53784;52.630;4.896;2023-04-24T01:43:18;3.20;;;1.67;;
66874;SDS011;53784;52.630;4.896;2023-04-24T01:45:44;4.10;;;1.80;;
66874;SDS011;53784;52.630;4.896;2023-04-24T01:48:10;4.57;;;1.85;;
66874;SDS011;53784;52.630;4.896;2023-04-24T01:50:36;4.40;;;2.17;;
66874;SDS011;53784;52.630;4.896;2023-04-24T01:53:01;4.88;;;2.10;;
66874;SDS011;53784;52.630;4.896;2023-04-24T01:55:27;4.47;;;2.22;;
66874;SDS011;53784;52.630;4.896;2023-04-24T01:57:52;6.80;;;2.50;;
66874;SDS011;53784;52.630;4.896;2023-04-24T02:00:20;6.63;;;2.65;;
66874;SDS011;53784;52.630;4.896;2023-04-24T02:02:45;6.93;;;3.20;;
66874;SDS011;53784;52.630;4.896;2023-04-24T02:05:11;5.15;;;2.60;;
66874;SDS011;53784;52.630;4.896;2023-04-24T02:07:36;5.00;;;2.30;;
66874;SDS011;53784;52.630;4.896;2023-04-24T02:10:02;6.18;;;2.50;;
66874;SDS011;53784;52.630;4.896;2023-04-24T02:12:28;5.68;;;2.20;;
66874;SDS011;53784;52.630;4.896;2023-04-24T02:14:54;6.28;;;2.10;;
66874;SDS011;53784;52.630;4.896;2023-04-24T02:17:19;4.15;;;1.70;;
66874;SDS011;53784;52.630;4.896;2023-04-24T02:19:45;4.25;;;1.70;;
66874;SDS011;53784;52.630;4.896;2023-04-24T02:22:11;5.10;;;1.60;;
66874;SDS011;53784;52.630;4.896;2023-04-24T02:24:36;4.88;;;1.60;;
66874;SDS011;53784;52.630;4.896;2023-04-24T02:27:02;4.25;;;1.92;;
66874;SDS011;53784;52.630;4.896;2023-04-24T02:29:27;4.03;;;2.10;;
66874;SDS011;53784;52.630;4.896;2023-04-24T02:31:53;4.10;;;1.60;;
66874;SDS011;53784;52.630;4.896;2023-04-24T02:34:18;3.95;;;1.70;;
66874;SDS011;53784;52.630;4.896;2023-04-24T02:36:43;3.33;;;1.65;;
66874;SDS011;53784;52.630;4.896;2023-04-24T02:39:08;5.18;;;1.63;;
66874;SDS011;53784;52.630;4.896;2023-04-24T02:41:34;4.32;;;1.65;;
66874;SDS011;53784;52.630;4.896;2023-04-24T02:43:59;4.90;;;1.73;;
66874;SDS011;53784;52.630;4.896;2023-04-24T02:46:25;6.18;;;1.98;;
66874;SDS011;53784;52.630;4.896;2023-04-24T02:48:50;3.83;;;1.63;;
66874;SDS011;53784;52.630;4.896;2023-04-24T02:51:15;4.57;;;1.60;;
66874;SDS011;53784;52.630;4.896;2023-04-24T02:53:41;5.43;;;1.88;;
66874;SDS011;53784;52.630;4.896;2023-04-24T02:56:06;5.93;;;1.90;;
66874;SDS011;53784;52.630;4.896;2023-04-24T02:58:31;5.30;;;1.70;;
66874;SDS011;53784;52.630;4.896;2023-04-24T03:00:57;3.88;;;1.60;;
66874;SDS011;53784;52.630;4.896;2023-04-24T03:03:23;4.13;;;1.60;;
66874;SDS011;53784;52.630;4.896;2023-04-24T03:05:48;4.55;;;1.73;;
66874;SDS011;53784;52.630;4.896;2023-04-24T03:08:14;4.43;;;1.70;;
66874;SDS011;53784;52.630;4.896;2023-04-24T03:10:39;4.50;;;1.80;;
66874;SDS011;53784;52.630;4.896;2023-04-24T03:13:05;5.78;;;2.10;;
66874;SDS011;53784;52.630;4.896;2023-04-24T03:15:30;4.20;;;1.98;;
66874;SDS011;53784;52.630;4.896;2023-04-24T03:17:55;6.05;;;2.30;;
66874;SDS011;53784;52.630;4.896;2023-04-24T03:20:20;4.88;;;2.45;;
66874;SDS011;53784;52.630;4.896;2023-04-24T03:22:46;4.70;;;2.38;;
66874;SDS011;53784;52.630;4.896;2023-04-24T03:25:11;5.18;;;2.55;;
66874;SDS011;53784;52.630;4.896;2023-04-24T03:27:37;4.45;;;2.35;;
66874;SDS011;53784;52.630;4.896;2023-04-24T03:30:02;6.88;;;3.00;;
66874;SDS011;53784;52.630;4.896;2023-04-24T03:32:28;5.28;;;2.47;;
66874;SDS011;53784;52.630;4.896;2023-04-24T03:34:53;5.05;;;2.75;;
66874;SDS011;53784;52.630;4.896;2023-04-24T03:37:19;5.07;;;2.90;;
66874;SDS011;53784;52.630;4.896;2023-04-24T03:39:44;6.90;;;2.88;;
66874;SDS011;53784;52.630;4.896;2023-04-24T03:42:09;5.95;;;2.85;;
66874;SDS011;53784;52.630;4.896;2023-04-24T03:44:35;6.55;;;3.40;;
66874;SDS011;53784;52.630;4.896;2023-04-24T03:47:00;7.88;;;3.40;;
66874;SDS011;53784;52.630;4.896;2023-04-24T03:49:26;8.43;;;3.20;;
66874;SDS011;53784;52.630;4.896;2023-04-24T03:51:51;7.50;;;3.50;;
66874;SDS011;53784;52.630;4.896;2023-04-24T03:54:17;6.50;;;3.40;;
66874;SDS011;53784;52.630;4.896;2023-04-24T03:56:43;6.25;;;3.33;;
66874;SDS011;53784;52.630;4.896;2023-04-24T03:59:08;6.97;;;3.30;;
66874;SDS011;53784;52.630;4.896;2023-04-24T04:01:34;6.75;;;3.33;;
66874;SDS011;53784;52.630;4.896;2023-04-24T04:04:02;7.60;;;3.88;;
66874;SDS011;53784;52.630;4.896;2023-04-24T04:06:28;8.32;;;4.20;;
66874;SDS011;53784;52.630;4.896;2023-04-24T04:08:53;7.78;;;4.18;;
66874;SDS011;53784;52.630;4.896;2023-04-24T04:11:18;8.60;;;4.03;;
66874;SDS011;53784;52.630;4.896;2023-04-24T04:13:44;8.52;;;4.60;;
66874;SDS011;53784;52.630;4.896;2023-04-24T04:16:12;9.30;;;5.13;;
66874;SDS011;53784;52.630;4.896;2023-04-24T04:18:38;10.02;;;5.68;;
66874;SDS011;53784;52.630;4.896;2023-04-24T04:21:03;8.65;;;5.20;;
66874;SDS011;53784;52.630;4.896;2023-04-24T04:23:28;10.10;;;5.70;;
66874;SDS011;53784;52.630;4.896;2023-04-24T04:25:54;10.07;;;5.65;;
66874;SDS011;53784;52.630;4.896;2023-04-24T04:28:20;11.25;;;5.45;;
66874;SDS011;53784;52.630;4.896;2023-04-24T04:30:45;8.13;;;5.05;;
66874;SDS011;53784;52.630;4.896;2023-04-24T04:33:12;9.98;;;5.47;;
66874;SDS011;53784;52.630;4.896;2023-04-24T04:35:37;8.15;;;4.18;;
66874;SDS011;53784;52.630;4.896;2023-04-24T04:38:02;7.57;;;3.72;;
66874;SDS011;53784;52.630;4.896;2023-04-24T04:40:27;6.15;;;3.22;;
66874;SDS011;53784;52.630;4.896;2023-04-24T04:42:53;5.30;;;2.75;;
66874;SDS011;53784;52.630;4.896;2023-04-24T04:45:18;6.20;;;2.85;;
66874;SDS011;53784;52.630;4.896;2023-04-24T04:47:45;3.50;;;1.83;;
66874;SDS011;53784;52.630;4.896;2023-04-24T04:50:11;4.10;;;2.03;;
66874;SDS011;53784;52.630;4.896;2023-04-24T04:52:36;3.25;;;1.77;;
66874;SDS011;53784;52.630;4.896;2023-04-24T04:55:01;3.55;;;1.60;;
66874;SDS011;53784;52.630;4.896;2023-04-24T04:57:27;2.80;;;1.40;;
66874;SDS011;53784;52.630;4.896;2023-04-24T04:59:52;2.85;;;1.33;;
66874;SDS011;53784;52.630;4.896;2023-04-24T05:02:18;3.42;;;1.50;;
66874;SDS011;53784;52.630;4.896;2023-04-24T05:04:43;5.75;;;2.20;;
66874;SDS011;53784;52.630;4.896;2023-04-24T05:07:08;5.05;;;2.65;;
66874;SDS011;53784;52.630;4.896;2023-04-24T05:09:34;7.53;;;3.60;;
66874;SDS011;53784;52.630;4.896;2023-04-24T05:11:59;12.68;;;5.88;;
66874;SDS011;53784;52.630;4.896;2023-04-24T05:14:25;13.95;;;6.45;;
66874;SDS011;53784;52.630;4.896;2023-04-24T05:16:50;18.45;;;7.90;;
66874;SDS011;53784;52.630;4.896;2023-04-24T05:19:15;22.58;;;9.68;;
66874;SDS011;53784;52.630;4.896;2023-04-24T05:21:41;21.73;;;9.57;;
66874;SDS011;53784;52.630;4.896;2023-04-24T05:24:06;23.45;;;10.30;;
66874;SDS011;53784;52.630;4.896;2023-04-24T05:26:32;20.48;;;9.80;;
66874;SDS011;53784;52.630;4.896;2023-04-24T05:28:57;19.17;;;8.70;;
66874;SDS011;53784;52.630;4.896;2023-04-24T05:31:22;22.10;;;9.75;;
66874;SDS011;53784;52.630;4.896;2023-04-24T05:33:48;19.60;;;9.45;;
66874;SDS011;53784;52.630;4.896;2023-04-24T05:36:13;22.67;;;9.38;;
66874;SDS011;53784;52.630;4.896;2023-04-24T05:38:38;22.23;;;9.63;;
66874;SDS011;53784;52.630;4.896;2023-04-24T05:41:04;20.27;;;9.02;;
66874;SDS011;53784;52.630;4.896;2023-04-24T05:43:29;15.85;;;8.93;;
66874;SDS011;53784;52.630;4.896;2023-04-24T05:45:54;18.80;;;8.85;;
66874;SDS011;53784;52.630;4.896;2023-04-24T05:48:20;15.60;;;8.20;;
66874;SDS011;53784;52.630;4.896;2023-04-24T05:50:47;17.95;;;7.28;;
66874;SDS011;53784;52.630;4.896;2023-04-24T05:53:12;17.88;;;8.55;;
66874;SDS011;53784;52.630;4.896;2023-04-24T05:55:38;15.95;;;7.47;;
66874;SDS011;53784;52.630;4.896;2023-04-24T05:58:03;18.20;;;7.60;;
66874;SDS011;53784;52.630;4.896;2023-04-24T06:00:28;15.75;;;7.18;;
66874;SDS011;53784;52.630;4.896;2023-04-24T06:02:54;16.05;;;7.50;;
66874;SDS011;53784;52.630;4.896;2023-04-24T06:05:20;15.63;;;6.68;;
66874;SDS011;53784;52.630;4.896;2023-04-24T06:07:45;13.30;;;5.55;;
66874;SDS011;53784;52.630;4.896;2023-04-24T06:10:10;12.23;;;5.68;;
66874;SDS011;53784;52.630;4.896;2023-04-24T06:12:36;13.00;;;5.68;;
66874;SDS011;53784;52.630;4.896;2023-04-24T06:15:01;14.88;;;5.70;;
66874;SDS011;53784;52.630;4.896;2023-04-24T06:17:27;13.23;;;5.65;;
66874;SDS011;53784;52.630;4.896;2023-04-24T06:19:52;14.27;;;5.30;;
66874;SDS011;53784;52.630;4.896;2023-04-24T06:22:18;12.25;;;5.30;;
66874;SDS011;53784;52.630;4.896;2023-04-24T06:24:43;15.13;;;6.00;;
66874;SDS011;53784;52.630;4.896;2023-04-24T06:27:08;12.93;;;5.38;;
66874;SDS011;53784;52.630;4.896;2023-04-24T06:29:35;12.15;;;5.43;;
66874;SDS011;53784;52.630;4.896;2023-04-24T06:32:01;14.70;;;5.95;;
66874;SDS011;53784;52.630;4.896;2023-04-24T06:34:26;13.05;;;5.80;;
66874;SDS011;53784;52.630;4.896;2023-04-24T06:36:51;11.32;;;4.78;;
66874;SDS011;53784;52.630;4.896;2023-04-24T06:39:16;11.02;;;4.78;;
66874;SDS011;53784;52.630;4.896;2023-04-24T06:41:42;13.38;;;5.30;;
66874;SDS011;53784;52.630;4.896;2023-04-24T06:44:07;12.57;;;5.00;;
66874;SDS011;53784;52.630;4.896;2023-04-24T06:46:32;10.93;;;4.95;;
66874;SDS011;53784;52.630;4.896;2023-04-24T06:48:58;10.70;;;4.35;;
66874;SDS011;53784;52.630;4.896;2023-04-24T06:51:23;9.45;;;4.50;;
66874;SDS011;53784;52.630;4.896;2023-04-24T06:53:49;9.70;;;4.40;;
66874;SDS011;53784;52.630;4.896;2023-04-24T06:56:15;9.23;;;4.22;;
66874;SDS011;53784;52.630;4.896;2023-04-24T06:58:40;12.00;;;4.60;;
66874;SDS011;53784;52.630;4.896;2023-04-24T07:01:05;11.93;;;4.40;;
66874;SDS011;53784;52.630;4.896;2023-04-24T07:03:31;9.40;;;4.70;;
66874;SDS011;53784;52.630;4.896;2023-04-24T07:05:56;10.88;;;4.35;;
66874;SDS011;53784;52.630;4.896;2023-04-24T07:08:22;11.05;;;4.30;;
66874;SDS011;53784;52.630;4.896;2023-04-24T07:10:48;13.40;;;4.65;;
66874;SDS011;53784;52.630;4.896;2023-04-24T07:13:14;13.63;;;4.65;;
66874;SDS011;53784;52.630;4.896;2023-04-24T07:15:39;10.13;;;4.10;;
66874;SDS011;53784;52.630;4.896;2023-04-24T07:18:05;10.48;;;4.05;;
66874;SDS011;53784;52.630;4.896;2023-04-24T07:20:31;13.15;;;4.63;;
66874;SDS011;53784;52.630;4.896;2023-04-24T07:22:56;12.55;;;4.13;;
66874;SDS011;53784;52.630;4.896;2023-04-24T07:25:21;8.73;;;3.80;;
66874;SDS011;53784;52.630;4.896;2023-04-24T07:27:47;9.60;;;3.55;;
66874;SDS011;53784;52.630;4.896;2023-04-24T07:30:13;13.48;;;3.92;;
66874;SDS011;53784;52.630;4.896;2023-04-24T07:32:39;15.55;;;4.03;;
66874;SDS011;53784;52.630;4.896;2023-04-24T07:35:04;15.80;;;3.72;;
66874;SDS011;53784;52.630;4.896;2023-04-24T07:37:30;12.45;;;3.20;;
66874;SDS011;53784;52.630;4.896;2023-04-24T07:39:55;12.82;;;2.70;;
66874;SDS011;53784;52.630;4.896;2023-04-24T07:42:21;15.32;;;2.85;;
66874;SDS011;53784;52.630;4.896;2023-04-24T07:44:46;9.48;;;2.20;;
66874;SDS011;53784;52.630;4.896;2023-04-24T07:47:12;13.10;;;2.58;;
66874;SDS011;53784;52.630;4.896;2023-04-24T07:49:40;11.63;;;2.60;;
66874;SDS011;53784;52.630;4.896;2023-04-24T07:52:06;15.27;;;3.00;;
66874;SDS011;53784;52.630;4.896;2023-04-24T07:54:31;11.55;;;2.60;;
66874;SDS011;53784;52.630;4.896;2023-04-24T07:56:57;12.07;;;2.38;;
66874;SDS011;53784;52.630;4.896;2023-04-24T07:59:22;11.13;;;2.15;;
66874;SDS011;53784;52.630;4.896;2023-04-24T08:01:47;11.23;;;2.15;;
66874;SDS011;53784;52.630;4.896;2023-04-24T08:04:13;12.50;;;2.58;;
66874;SDS011;53784;52.630;4.896;2023-04-24T08:06:38;10.60;;;2.58;;
66874;SDS011;53784;52.630;4.896;2023-04-24T08:09:03;15.85;;;2.33;;
66874;SDS011;53784;52.630;4.896;2023-04-24T08:11:28;9.40;;;2.53;;
66874;SDS011;53784;52.630;4.896;2023-04-24T08:13:54;11.73;;;2.20;;
66874;SDS011;53784;52.630;4.896;2023-04-24T08:16:19;10.13;;;2.03;;
66874;SDS011;53784;52.630;4.896;2023-04-24T08:18:45;14.13;;;2.22;;
66874;SDS011;53784;52.630;4.896;2023-04-24T08:21:10;12.43;;;2.05;;
66874;SDS011;53784;52.630;4.896;2023-04-24T08:23:37;9.35;;;2.03;;
66874;SDS011;53784;52.630;4.896;2023-04-24T08:26:03;13.07;;;1.70;;
66874;SDS011;53784;52.630;4.896;2023-04-24T08:28:28;10.50;;;1.90;;
66874;SDS011;53784;52.630;4.896;2023-04-24T08:30:53;9.85;;;2.00;;
66874;SDS011;53784;52.630;4.896;2023-04-24T08:33:23;10.23;;;1.65;;
66874;SDS011;53784;52.630;4.896;2023-04-24T08:35:48;9.90;;;1.63;;
66874;SDS011;53784;52.630;4.896;2023-04-24T08:38:15;9.75;;;1.50;;
66874;SDS011;53784;52.630;4.896;2023-04-24T08:40:41;6.65;;;1.50;;
66874;SDS011;53784;52.630;4.896;2023-04-24T08:43:06;8.10;;;1.60;;
66874;SDS011;53784;52.630;4.896;2023-04-24T08:45:32;7.68;;;1.67;;
66874;SDS011;53784;52.630;4.896;2023-04-24T08:47:58;7.13;;;1.50;;
66874;SDS011;53784;52.630;4.896;2023-04-24T08:50:23;9.30;;;1.70;;
66874;SDS011;53784;52.630;4.896;2023-04-24T08:52:49;6.95;;;1.63;;
66874;SDS011;53784;52.630;4.896;2023-04-24T08:55:15;9.80;;;1.50;;
66874;SDS011;53784;52.630;4.896;2023-04-24T08:57:43;10.18;;;1.80;;
66874;SDS011;53784;52.630;4.896;2023-04-24T09:00:10;9.43;;;1.58;;
66874;SDS011;53784;52.630;4.896;2023-04-24T09:02:36;9.43;;;1.88;;
66874;SDS011;53784;52.630;4.896;2023-04-24T09:05:01;9.63;;;1.83;;
66874;SDS011;53784;52.630;4.896;2023-04-24T09:07:28;13.18;;;1.83;;
66874;SDS011;53784;52.630;4.896;2023-04-24T09:09:55;8.35;;;1.58;;
66874;SDS011;53784;52.630;4.896;2023-04-24T09:12:21;6.18;;;1.52;;
66874;SDS011;53784;52.630;4.896;2023-04-24T09:14:46;9.20;;;1.77;;
66874;SDS011;53784;52.630;4.896;2023-04-24T09:17:13;8.15;;;1.45;;
66874;SDS011;53784;52.630;4.896;2023-04-24T09:19:38;6.68;;;1.33;;
66874;SDS011;53784;52.630;4.896;2023-04-24T09:22:07;4.28;;;1.00;;
66874;SDS011;53784;52.630;4.896;2023-04-24T09:24:33;7.25;;;1.35;;
66874;SDS011;53784;52.630;4.896;2023-04-24T09:26:59;8.82;;;1.80;;
66874;SDS011;53784;52.630;4.896;2023-04-24T09:29:26;7.18;;;1.25;;
66874;SDS011;53784;52.630;4.896;2023-04-24T09:31:51;7.40;;;1.42;;
66874;SDS011;53784;52.630;4.896;2023-04-24T09:34:23;6.88;;;1.13;;
66874;SDS011;53784;52.630;4.896;2023-04-24T09:36:50;6.22;;;1.20;;
66874;SDS011;53784;52.630;4.896;2023-04-24T09:39:16;7.95;;;1.23;;
66874;SDS011;53784;52.630;4.896;2023-04-24T09:41:54;7.20;;;1.40;;
66874;SDS011;53784;52.630;4.896;2023-04-24T09:44:23;5.88;;;1.20;;
66874;SDS011;53784;52.630;4.896;2023-04-24T09:46:53;5.55;;;1.15;;
66874;SDS011;53784;52.630;4.896;2023-04-24T09:49:29;6.45;;;1.10;;
66874;SDS011;53784;52.630;4.896;2023-04-24T09:54:33;4.60;;;1.30;;
66874;SDS011;53784;52.630;4.896;2023-04-24T09:56:59;5.07;;;1.27;;
66874;SDS011;53784;52.630;4.896;2023-04-24T09:59:25;4.85;;;1.30;;
66874;SDS011;53784;52.630;4.896;2023-04-24T10:01:50;6.20;;;1.10;;
66874;SDS011;53784;52.630;4.896;2023-04-24T10:06:43;7.57;;;1.20;;
66874;SDS011;53784;52.630;4.896;2023-04-24T10:09:09;4.85;;;1.17;;
66874;SDS011;53784;52.630;4.896;2023-04-24T10:11:36;5.43;;;0.93;;
66874;SDS011;53784;52.630;4.896;2023-04-24T10:14:02;4.47;;;1.17;;
66874;SDS011;53784;52.630;4.896;2023-04-24T10:16:28;7.03;;;1.23;;
66874;SDS011;53784;52.630;4.896;2023-04-24T10:18:55;4.65;;;0.90;;
66874;SDS011;53784;52.630;4.896;2023-04-24T10:21:20;6.90;;;0.90;;
66874;SDS011;53784;52.630;4.896;2023-04-24T10:23:46;5.28;;;1.10;;
66874;SDS011;53784;52.630;4.896;2023-04-24T10:26:13;6.55;;;1.08;;
66874;SDS011;53784;52.630;4.896;2023-04-24T10:28:45;5.80;;;1.10;;
66874;SDS011;53784;52.630;4.896;2023-04-24T10:31:12;5.22;;;1.00;;
66874;SDS011;53784;52.630;4.896;2023-04-24T10:33:38;4.32;;;0.80;;
66874;SDS011;53784;52.630;4.896;2023-04-24T10:36:08;7.00;;;1.00;;
66874;SDS011;53784;52.630;4.896;2023-04-24T10:38:35;7.25;;;1.13;;
66874;SDS011;53784;52.630;4.896;2023-04-24T10:41:11;5.50;;;1.17;;
66874;SDS011;53784;52.630;4.896;2023-04-24T10:44:08;5.80;;;1.05;;
66874;SDS011;53784;52.630;4.896;2023-04-24T10:46:39;6.55;;;0.98;;
66874;SDS011;53784;52.630;4.896;2023-04-24T10:49:07;5.38;;;0.90;;
66874;SDS011;53784;52.630;4.896;2023-04-24T10:51:44;5.88;;;1.20;;
66874;SDS011;53784;52.630;4.896;2023-04-24T10:59:42;6.65;;;1.08;;
66874;SDS011;53784;52.630;4.896;2023-04-24T11:02:08;4.22;;;0.90;;
66874;SDS011;53784;52.630;4.896;2023-04-24T11:04:34;4.65;;;0.80;;
66874;SDS011;53784;52.630;4.896;2023-04-24T11:07:02;4.50;;;1.00;;
66874;SDS011;53784;52.630;4.896;2023-04-24T11:09:30;4.53;;;0.90;;
66874;SDS011;53784;52.630;4.896;2023-04-24T11:12:08;4.97;;;0.98;;
66874;SDS011;53784;52.630;4.896;2023-04-24T11:17:29;4.97;;;1.13;;
66874;SDS011;53784;52.630;4.896;2023-04-24T11:20:06;5.70;;;1.20;;
66874;SDS011;53784;52.630;4.896;2023-04-24T11:22:35;4.10;;;0.93;;
66874;SDS011;53784;52.630;4.896;2023-04-24T11:25:01;3.72;;;1.00;;
66874;SDS011;53784;52.630;4.896;2023-04-24T11:27:29;5.88;;;1.00;;
66874;SDS011;53784;52.630;4.896;2023-04-24T11:32:25;5.07;;;1.27;;
66874;SDS011;53784;52.630;4.896;2023-04-24T11:34:55;6.43;;;1.23;;
66874;SDS011;53784;52.630;4.896;2023-04-24T11:37:27;6.03;;;1.30;;
66874;SDS011;53784;52.630;4.896;2023-04-24T11:39:56;6.15;;;1.40;;
66874;SDS011;53784;52.630;4.896;2023-04-24T11:42:22;5.03;;;1.13;;
66874;SDS011;53784;52.630;4.896;2023-04-24T11:44:49;8.05;;;1.13;;
66874;SDS011;53784;52.630;4.896;2023-04-24T11:47:14;6.68;;;1.42;;
66874;SDS011;53784;52.630;4.896;2023-04-24T11:49:40;4.03;;;0.90;;
66874;SDS011;53784;52.630;4.896;2023-04-24T11:52:05;5.30;;;0.82;;
66874;SDS011;53784;52.630;4.896;2023-04-24T11:54:31;6.10;;;1.13;;
66874;SDS011;53784;52.630;4.896;2023-04-24T11:56:56;8.40;;;1.40;;
66874;SDS011;53784;52.630;4.896;2023-04-24T11:59:22;6.00;;;1.17;;
66874;SDS011;53784;52.630;4.896;2023-04-24T12:01:48;5.70;;;1.38;;
66874;SDS011;53784;52.630;4.896;2023-04-24T12:04:14;7.07;;;1.38;;
66874;SDS011;53784;52.630;4.896;2023-04-24T12:06:58;6.03;;;1.23;;
66874;SDS011;53784;52.630;4.896;2023-04-24T12:09:24;7.32;;;1.48;;
66874;SDS011;53784;52.630;4.896;2023-04-24T12:11:53;8.40;;;1.48;;
66874;SDS011;53784;52.630;4.896;2023-04-24T12:14:21;7.80;;;1.30;;
66874;SDS011;53784;52.630;4.896;2023-04-24T12:16:47;4.70;;;1.23;;
66874;SDS011;53784;52.630;4.896;2023-04-24T12:19:22;6.30;;;0.95;;
66874;SDS011;53784;52.630;4.896;2023-04-24T12:21:58;5.80;;;1.60;;
66874;SDS011;53784;52.630;4.896;2023-04-24T12:24:25;5.28;;;1.17;;
66874;SDS011;53784;52.630;4.896;2023-04-24T12:26:50;3.67;;;1.08;;
66874;SDS011;53784;52.630;4.896;2023-04-24T12:29:22;6.45;;;1.15;;
66874;SDS011;53784;52.630;4.896;2023-04-24T12:31:47;6.18;;;1.23;;
66874;SDS011;53784;52.630;4.896;2023-04-24T12:34:19;8.25;;;1.40;;
66874;SDS011;53784;52.630;4.896;2023-04-24T12:36:46;5.93;;;1.30;;
66874;SDS011;53784;52.630;4.896;2023-04-24T12:39:15;7.25;;;1.55;;
66874;SDS011;53784;52.630;4.896;2023-04-24T12:41:56;8.15;;;1.40;;
66874;SDS011;53784;52.630;4.896;2023-04-24T12:44:34;8.63;;;1.60;;
66874;SDS011;53784;52.630;4.896;2023-04-24T12:47:00;7.78;;;1.80;;
66874;SDS011;53784;52.630;4.896;2023-04-24T12:49:26;9.23;;;1.77;;
66874;SDS011;53784;52.630;4.896;2023-04-24T12:51:52;11.30;;;2.08;;
66874;SDS011;53784;52.630;4.896;2023-04-24T12:54:18;9.25;;;1.98;;
66874;SDS011;53784;52.630;4.896;2023-04-24T12:56:43;11.13;;;2.00;;
66874;SDS011;53784;52.630;4.896;2023-04-24T12:59:09;6.00;;;1.90;;
66874;SDS011;53784;52.630;4.896;2023-04-24T13:01:34;11.35;;;1.88;;
66874;SDS011;53784;52.630;4.896;2023-04-24T13:03:59;9.40;;;1.92;;
66874;SDS011;53784;52.630;4.896;2023-04-24T13:06:25;7.72;;;1.63;;
66874;SDS011;53784;52.630;4.896;2023-04-24T13:08:51;10.32;;;2.10;;
66874;SDS011;53784;52.630;4.896;2023-04-24T13:11:16;8.32;;;1.58;;
66874;SDS011;53784;52.630;4.896;2023-04-24T13:13:42;7.43;;;1.30;;
66874;SDS011;53784;52.630;4.896;2023-04-24T13:16:07;8.25;;;1.60;;
66874;SDS011;53784;52.630;4.896;2023-04-24T13:18:32;8.98;;;1.83;;
66874;SDS011;53784;52.630;4.896;2023-04-24T13:20:58;10.13;;;1.77;;
66874;SDS011;53784;52.630;4.896;2023-04-24T13:23:23;6.45;;;1.40;;
66874;SDS011;53784;52.630;4.896;2023-04-24T13:25:48;9.02;;;1.75;;
66874;SDS011;53784;52.630;4.896;2023-04-24T13:28:14;11.07;;;2.00;;
66874;SDS011;53784;52.630;4.896;2023-04-24T13:30:39;12.38;;;2.38;;
66874;SDS011;53784;52.630;4.896;2023-04-24T13:33:05;11.60;;;1.95;;
66874;SDS011;53784;52.630;4.896;2023-04-24T13:35:30;11.40;;;2.28;;
66874;SDS011;53784;52.630;4.896;2023-04-24T13:37:56;12.70;;;1.83;;
66874;SDS011;53784;52.630;4.896;2023-04-24T13:40:22;9.02;;;1.85;;
66874;SDS011;53784;52.630;4.896;2023-04-24T13:42:47;9.65;;;2.30;;
66874;SDS011;53784;52.630;4.896;2023-04-24T13:45:12;9.38;;;2.30;;
66874;SDS011;53784;52.630;4.896;2023-04-24T13:47:38;8.07;;;1.95;;
66874;SDS011;53784;52.630;4.896;2023-04-24T13:50:05;7.95;;;1.75;;
66874;SDS011;53784;52.630;4.896;2023-04-24T13:52:32;8.48;;;1.88;;
66874;SDS011;53784;52.630;4.896;2023-04-24T13:54:57;9.70;;;2.00;;
66874;SDS011;53784;52.630;4.896;2023-04-24T13:57:23;9.63;;;2.03;;
66874;SDS011;53784;52.630;4.896;2023-04-24T13:59:48;14.00;;;2.45;;
66874;SDS011;53784;52.630;4.896;2023-04-24T14:02:13;16.13;;;2.40;;
66874;SDS011;53784;52.630;4.896;2023-04-24T14:04:38;11.02;;;2.28;;
66874;SDS011;53784;52.630;4.896;2023-04-24T14:07:04;12.63;;;2.60;;
66874;SDS011;53784;52.630;4.896;2023-04-24T14:09:29;8.75;;;1.92;;
66874;SDS011;53784;52.630;4.896;2023-04-24T14:11:55;13.43;;;2.60;;
66874;SDS011;53784;52.630;4.896;2023-04-24T14:14:20;11.40;;;2.50;;
66874;SDS011;53784;52.630;4.896;2023-04-24T14:16:46;11.75;;;2.33;;
66874;SDS011;53784;52.630;4.896;2023-04-24T14:19:11;9.82;;;2.47;;
66874;SDS011;53784;52.630;4.896;2023-04-24T14:21:36;10.23;;;2.17;;
66874;SDS011;53784;52.630;4.896;2023-04-24T14:24:02;9.05;;;2.03;;
66874;SDS011;53784;52.630;4.896;2023-04-24T14:26:27;8.63;;;2.20;;
66874;SDS011;53784;52.630;4.896;2023-04-24T14:28:53;10.57;;;2.17;;
66874;SDS011;53784;52.630;4.896;2023-04-24T14:31:18;8.43;;;1.95;;
66874;SDS011;53784;52.630;4.896;2023-04-24T14:33:44;11.82;;;1.98;;
66874;SDS011;53784;52.630;4.896;2023-04-24T14:36:09;9.05;;;2.30;;
66874;SDS011;53784;52.630;4.896;2023-04-24T14:38:34;11.02;;;1.88;;
66874;SDS011;53784;52.630;4.896;2023-04-24T14:41:00;9.10;;;1.90;;
66874;SDS011;53784;52.630;4.896;2023-04-24T14:43:26;9.65;;;1.80;;
66874;SDS011;53784;52.630;4.896;2023-04-24T14:45:51;6.30;;;1.70;;
66874;SDS011;53784;52.630;4.896;2023-04-24T14:48:16;8.82;;;1.88;;
66874;SDS011;53784;52.630;4.896;2023-04-24T14:50:42;8.38;;;1.90;;
66874;SDS011;53784;52.630;4.896;2023-04-24T14:53:07;9.27;;;1.98;;